Time;durP1;ratioP1;P1;durP2;ratioP2;P2;SDS_P1;SDS_P2;PMS_P1;PMS_P2;Temp;Humidity;BMP_temperature;BMP_pressure;BME280_temperature;BME280_humidity;BME280_pressure;Samples;Min_cycle;Max_cycle;Signal;HPM_P1;HPM_P2
2022/08/10 04:34:40;;;;;;;9.45;5.58;;;;;;;10.50;100.00;99039.03;1791048;80;20980;-82
2022/08/10 04:37:05;;;;;;;8.28;5.78;;;;;;;10.58;100.00;99053.48;1691868;83;21058;-82
2022/08/10 04:39:31;;;;;;;10.78;5.95;;;;;;;10.76;100.00;99048.25;1722892;82;20955;-86
2022/08/10 04:41:57;;;;;;;7.97;5.30;;;;;;;10.86;100.00;99057.87;1721088;83;20958;-87
2022/08/10 04:44:23;;;;;;;10.03;5.75;;;;;;;10.96;100.00;99055.25;1724425;82;20880;-86
2022/08/10 04:46:49;;;;;;;7.65;5.15;;;;;;;11.13;100.00;99055.13;1667884;85;21886;-85
2022/08/10 04:49:15;;;;;;;7.95;5.67;;;;;;;11.26;100.00;99053.33;1722213;83;20982;-82
2022/08/10 04:51:41;;;;;;;7.40;5.08;;;;;;;11.39;100.00;99052.09;1698122;82;21612;-87
2022/08/10 04:54:07;;;;;;;7.97;5.30;;;;;;;11.48;99.80;99056.77;1724234;82;21511;-85
2022/08/10 04:56:35;;;;;;;7.20;4.37;;;;;;;11.58;100.00;99056.02;1664895;84;21197;-83
2022/08/10 04:59:02;;;;;;;8.08;4.80;;;;;;;11.72;99.66;99063.19;1654795;85;21134;-86
2022/08/10 05:01:28;;;;;;;62.62;56.02;;;;;;;11.84;98.85;99057.03;1669627;84;21517;-82
2022/08/10 05:03:54;;;;;;;15.30;7.15;;;;;;;11.93;98.56;99060.88;1697296;82;21006;-86
2022/08/10 05:06:20;;;;;;;8.40;5.58;;;;;;;12.07;98.17;99063.95;1722179;83;21100;-86
2022/08/10 05:08:46;;;;;;;6.50;4.30;;;;;;;12.17;98.62;99061.83;1724542;81;20900;-82
2022/08/10 05:11:12;;;;;;;8.83;4.67;;;;;;;12.33;98.34;99064.89;1738893;81;21153;-86
2022/08/10 05:13:38;;;;;;;12.73;7.47;;;;;;;12.41;97.86;99067.92;1689204;83;20866;-82
2022/08/10 05:16:04;;;;;;;8.53;5.60;;;;;;;12.51;98.59;99063.59;1721511;81;21002;-87
2022/08/10 05:18:30;;;;;;;9.98;5.83;;;;;;;12.61;98.37;99061.72;1729878;81;21051;-82
2022/08/10 05:20:56;;;;;;;11.08;6.80;;;;;;;12.76;98.27;99059.59;1727769;81;20935;-86
2022/08/10 05:23:22;;;;;;;10.58;6.37;;;;;;;12.91;97.91;99054.19;1727348;82;21132;-82
2022/08/10 05:25:48;;;;;;;9.93;6.33;;;;;;;13.07;97.87;99066.42;1722331;82;21132;-82
2022/08/10 05:28:14;;;;;;;11.38;6.22;;;;;;;13.25;97.65;99064.05;1737684;81;21132;-82
2022/08/10 05:30:40;;;;;;;10.60;6.58;;;;;;;13.44;97.29;99060.23;1701375;83;20896;-86
2022/08/10 05:33:06;;;;;;;5.83;4.83;;;;;;;13.61;96.60;99061.85;1723327;81;21493;-86
2022/08/10 05:35:32;;;;;;;9.88;6.40;;;;;;;13.75;96.24;99058.81;1729872;81;21211;-86
2022/08/10 05:37:58;;;;;;;8.65;5.65;;;;;;;13.89;95.91;99059.08;1727130;83;21404;-86
2022/08/10 05:40:27;;;;;;;10.30;6.25;;;;;;;14.02;95.55;99056.60;1722370;81;41453;-83
2022/08/10 05:42:53;;;;;;;9.40;6.20;;;;;;;14.22;95.48;99054.89;1722075;81;21049;-86
2022/08/10 05:45:23;;;;;;;6.42;5.33;;;;;;;14.41;94.37;99055.90;1690919;83;21013;-83
2022/08/10 05:47:49;;;;;;;9.68;5.25;;;;;;;14.47;94.16;99050.73;1720757;81;21048;-82
2022/08/10 05:50:18;;;;;;;8.08;5.45;;;;;;;14.52;93.71;99047.14;1687623;83;20955;-86
2022/08/10 05:52:44;;;;;;;12.00;5.45;;;;;;;14.56;93.04;99049.05;1722316;82;21294;-87
2022/08/10 05:55:10;;;;;;;7.72;5.37;;;;;;;14.71;92.81;99054.16;1707201;83;21062;-86
2022/08/10 05:57:36;;;;;;;9.10;5.00;;;;;;;14.83;92.93;99045.89;1701511;82;20922;-86
2022/08/10 06:00:06;;;;;;;9.55;5.53;;;;;;;14.92;91.57;99048.28;1724324;82;21698;-86
2022/08/10 06:02:44;;;;;;;11.57;5.67;;;;;;;14.95;90.89;99047.73;1694457;83;21042;-86
2022/08/10 06:05:24;;;;;;;7.40;5.15;;;;;;;15.14;91.84;99045.69;1687728;82;21107;-87
2022/08/10 06:07:59;;;;;;;13.05;5.50;;;;;;;15.24;91.00;99045.61;1723294;81;21044;-86
2022/08/10 06:10:25;;;;;;;7.05;5.12;;;;;;;15.37;90.94;99044.94;1728424;81;21395;-82
2022/08/10 06:15:25;;;;;;;9.18;5.30;;;;;;;15.69;90.38;99044.41;1686119;81;21042;-82
2022/08/10 06:17:50;;;;;;;6.83;5.45;;;;;;;15.76;89.76;99042.71;1732454;81;21153;-86
2022/08/10 06:20:16;;;;;;;7.75;5.47;;;;;;;15.85;89.37;99046.44;1722149;81;20939;-87
2022/08/10 06:22:42;;;;;;;8.08;5.33;;;;;;;15.99;89.47;99045.22;1724233;81;20969;-82
2022/08/10 06:25:09;;;;;;;8.98;6.33;;;;;;;16.13;88.17;99042.03;1719843;82;21162;-82
2022/08/10 06:27:35;;;;;;;14.43;5.67;;;;;;;16.28;88.13;99040.48;1732777;81;21099;-85
2022/08/10 06:30:01;;;;;;;6.92;4.85;;;;;;;16.48;88.38;99043.50;1734146;81;21068;-85
2022/08/10 06:32:27;;;;;;;7.35;5.50;;;;;;;16.62;87.69;99044.42;1725107;81;20942;-82
2022/08/10 06:34:55;;;;;;;7.17;5.40;;;;;;;16.75;87.42;99040.19;1698840;81;21544;-86
2022/08/10 06:37:24;;;;;;;15.45;5.85;;;;;;;16.97;87.38;99033.30;1722934;81;21128;-82
2022/08/10 06:39:50;;;;;;;8.15;5.20;;;;;;;17.19;85.76;99037.61;1700232;82;21015;-82
2022/08/10 06:42:23;;;;;;;10.32;6.22;;;;;;;17.41;85.66;99035.59;1698046;82;21024;-86
2022/08/10 06:45:05;;;;;;;11.33;6.72;;;;;;;17.59;85.52;99038.02;1713328;83;21067;-82
2022/08/10 06:47:53;;;;;;;9.43;6.22;;;;;;;17.61;82.29;99039.37;1712487;82;21094;-82
2022/08/10 06:50:22;;;;;;;9.63;6.50;;;;;;;17.78;82.77;99036.64;1711672;83;21151;-86
2022/08/10 06:52:49;;;;;;;10.05;6.17;;;;;;;17.97;81.98;99038.18;1725955;82;20960;-86
2022/08/10 06:55:16;;;;;;;11.88;6.53;;;;;;;18.07;81.92;99037.17;1722368;82;20987;-82
2022/08/10 06:57:42;;;;;;;9.40;6.60;;;;;;;18.59;82.42;99039.92;1720366;81;21451;-88
2022/08/10 07:00:09;;;;;;;14.45;6.40;;;;;;;19.18;81.73;99031.76;1701472;81;21040;-88
2022/08/10 07:02:44;;;;;;;9.98;5.67;;;;;;;19.60;79.42;99031.84;1704316;83;21148;-84
2022/08/10 07:05:14;;;;;;;11.38;4.85;;;;;;;19.82;79.98;99030.16;1723824;81;21018;-83
2022/08/10 07:07:40;;;;;;;7.45;4.70;;;;;;;19.99;77.12;99031.61;1720465;81;21611;-83
2022/08/10 07:10:07;;;;;;;9.28;5.00;;;;;;;20.19;76.39;99033.00;1733091;80;21610;-88
2022/08/10 07:12:33;;;;;;;11.65;4.95;;;;;;;20.20;74.63;99034.05;1727777;81;21344;-88
2022/08/10 07:14:59;;;;;;;8.70;4.75;;;;;;;20.26;74.13;99029.23;1727768;81;20942;-87
2022/08/10 07:17:26;;;;;;;9.13;5.28;;;;;;;20.43;73.23;99031.22;1677655;83;20875;-87
2022/08/10 07:19:55;;;;;;;5.70;3.87;;;;;;;21.02;72.28;99032.47;1694978;83;20982;-84
2022/08/10 07:22:26;;;;;;;6.37;3.85;;;;;;;21.56;70.94;99027.41;1668829;85;21052;-83
2022/08/10 07:24:53;;;;;;;8.15;4.20;;;;;;;21.93;65.04;99026.41;1667796;83;21091;-83
2022/08/10 07:27:19;;;;;;;5.42;3.75;;;;;;;22.58;69.10;99025.15;1667850;85;21544;-88
2022/08/10 07:29:45;;;;;;;6.00;3.85;;;;;;;23.08;66.56;99027.09;1680492;83;21606;-88
2022/08/10 07:32:11;;;;;;;5.58;3.50;;;;;;;23.66;66.93;99017.53;1677160;83;21659;-84
2022/08/10 07:34:37;;;;;;;8.35;3.42;;;;;;;24.04;64.81;99021.42;1645080;85;21081;-84
2022/08/10 07:37:07;;;;;;;9.13;4.03;;;;;;;24.94;62.53;99013.39;1643412;85;20918;-89
2022/08/10 07:39:37;;;;;;;9.58;3.77;;;;;;;24.94;62.53;99013.39;1686489;83;21133;-84
2022/08/10 07:42:04;;;;;;;4.40;3.15;;;;;;;25.30;61.98;99010.53;1657166;84;21637;-85
2022/08/10 07:44:30;;;;;;;6.55;3.12;;;;;;;25.50;54.89;99014.25;1649364;83;21081;-88
2022/08/10 07:46:59;;;;;;;12.33;3.47;;;;;;;25.66;56.83;99007.92;1687575;84;20930;-89
2022/08/10 07:49:26;;;;;;;;;;;;;;;26.11;57.43;99014.47;1705537;82;21017;-88
2022/08/10 07:51:55;;;;;;;4.87;2.90;;;;;;;25.86;51.17;99014.64;1725686;81;21869;-89
2022/08/10 07:54:22;;;;;;;8.65;3.02;;;;;;;26.12;51.57;99018.27;1719329;82;21124;-84
2022/08/10 07:56:51;;;;;;;8.90;3.35;;;;;;;26.55;50.55;99019.33;1716526;81;21052;-88
2022/08/10 07:59:19;;;;;;;;;;;;;;;26.13;51.33;99017.10;1707251;81;21132;-84
2022/08/10 08:01:53;;;;;;;4.33;2.98;;;;;;;25.97;49.61;99013.52;1741291;81;20254;-88
2022/08/10 08:04:21;;;;;;;4.28;2.60;;;;;;;26.04;52.60;99015.09;1746680;81;21898;-89
2022/08/10 08:06:47;;;;;;;4.60;2.62;;;;;;;26.39;48.89;99014.38;1737680;81;20977;-86
2022/08/10 08:09:13;;;;;;;4.92;2.25;;;;;;;26.10;47.71;99008.70;1738112;81;21091;-85
2022/08/10 08:11:43;;;;;;;5.15;2.00;;;;;;;26.90;45.43;99013.77;1723429;81;20978;-86
2022/08/10 08:14:09;;;;;;;7.95;2.42;;;;;;;27.62;46.31;99011.08;1728516;81;21122;-90
2022/08/10 08:16:37;;;;;;;7.00;3.05;;;;;;;27.94;43.31;99010.27;1722976;80;21101;-90
2022/08/10 08:19:03;;;;;;;6.85;3.37;;;;;;;27.70;41.27;99016.44;1679353;81;21097;-89
2022/08/10 08:21:29;;;;;;;5.05;2.50;;;;;;;28.08;40.81;99011.92;1716076;81;20913;-89
2022/08/10 08:23:55;;;;;;;3.58;2.22;;;;;;;28.04;42.43;99004.91;1697905;82;20977;-86
2022/08/10 08:26:21;;;;;;;4.55;2.42;;;;;;;27.60;41.15;99017.58;1688116;83;20903;-88
2022/08/10 08:28:47;;;;;;;5.20;2.25;;;;;;;28.32;41.28;99012.95;1723847;81;21158;-87
2022/08/10 08:31:14;;;;;;;3.62;2.37;;;;;;;26.62;42.54;99011.16;1710664;81;21026;-87
2022/08/10 08:33:42;;;;;;;2.90;2.05;;;;;;;26.84;41.42;99015.23;1725766;80;21971;-87
2022/08/10 08:36:08;;;;;;;5.13;2.10;;;;;;;27.61;40.59;99012.25;1719680;81;21133;-87
2022/08/10 08:38:35;;;;;;;4.03;2.10;;;;;;;28.87;40.15;99002.78;1646953;84;21160;-83
2022/08/10 08:41:27;;;;;;;4.85;2.02;;;;;;;29.01;36.89;99006.39;1722442;81;21138;-85
2022/08/10 08:44:14;;;;;;;6.08;2.20;;;;;;;27.60;38.43;99010.03;1711804;81;21720;-88
2022/08/10 08:47:18;;;;;;;5.45;2.05;;;;;;;27.34;37.83;99003.77;1684319;83;20995;-89
2022/08/10 08:50:03;;;;;;;5.75;3.45;;;;;;;28.11;37.21;99000.02;1683908;83;21107;-84
2022/08/10 08:52:52;;;;;;;4.37;2.37;;;;;;;29.15;35.94;99002.41;1722564;81;21069;-84
2022/08/10 08:55:38;;;;;;;8.35;1.92;;;;;;;29.09;35.46;99002.52;1725503;81;21065;-85
2022/08/10 08:58:48;;;;;;;3.27;2.40;;;;;;;30.47;35.34;98996.13;1713796;82;20982;-88
2022/08/10 09:01:54;;;;;;;6.28;2.37;;;;;;;29.54;33.29;98990.30;1722758;81;21082;-89
2022/08/10 09:04:45;;;;;;;6.40;2.05;;;;;;;31.16;31.65;98998.12;1724374;81;21109;-89
2022/08/10 09:07:56;;;;;;;4.25;2.17;;;;;;;31.42;31.40;98985.85;1724552;81;22162;-90
2022/08/10 09:10:46;;;;;;;3.95;2.55;;;;;;;31.73;31.86;98998.33;1721590;81;22155;-86
2022/08/10 09:13:25;;;;;;;3.67;2.17;;;;;;;31.50;32.02;98995.08;1685582;83;21018;-91
2022/08/10 09:16:21;;;;;;;5.87;2.30;;;;;;;31.43;32.20;98997.25;1722500;81;21025;-90
2022/08/10 09:19:11;;;;;;;4.67;2.23;;;;;;;31.95;32.07;98991.56;1676524;83;21569;-91
2022/08/10 09:21:46;;;;;;;3.95;2.33;;;;;;;31.66;30.13;98987.91;1682045;83;21030;-86
2022/08/10 09:24:22;;;;;;;6.10;2.58;;;;;;;31.55;30.57;98997.50;1720415;83;21791;-85
2022/08/10 09:26:50;;;;;;;4.30;2.10;;;;;;;32.82;30.48;98993.92;1724720;81;21531;-86
2022/08/10 09:29:30;;;;;;;2.75;1.98;;;;;;;33.00;29.18;98976.25;1686101;83;21014;-86
2022/08/10 09:32:12;;;;;;;5.87;2.50;;;;;;;30.74;31.21;98991.13;1722009;81;21199;-86
2022/08/10 09:35:19;;;;;;;25.90;3.92;;;;;;;29.78;31.70;98987.55;1711164;82;21058;-89
2022/08/10 09:37:51;;;;;;;3.60;2.08;;;;;;;30.19;31.77;98984.16;1717373;81;25942;-89
2022/08/10 09:40:24;;;;;;;3.98;2.65;;;;;;;28.31;33.32;98989.64;1707044;82;21093;-85
2022/08/10 09:43:26;;;;;;;4.70;1.77;;;;;;;29.01;31.14;98984.88;1674738;84;21066;-85
2022/08/10 09:46:03;;;;;;;4.80;1.92;;;;;;;30.44;29.88;98976.55;1709741;81;21538;-85
2022/08/10 09:48:44;;;;;;;3.20;2.27;;;;;;;29.96;31.09;98981.53;1732537;81;21040;-85
2022/08/10 09:51:32;;;;;;;7.53;1.70;;;;;;;28.14;33.64;98988.15;1720117;81;21721;-84
2022/08/10 09:54:13;;;;;;;2.98;2.12;;;;;;;28.08;33.92;98982.67;1719294;81;21509;-85
2022/08/10 09:57:28;;;;;;;2.58;1.55;;;;;;;27.88;34.85;98975.58;1717987;81;21074;-85
2022/08/10 09:59:59;;;;;;;6.58;2.00;;;;;;;29.48;31.99;98972.25;1726466;81;21503;-90
2022/08/10 10:02:40;;;;;;;3.17;2.17;;;;;;;30.40;29.85;98967.32;1719365;81;21104;-90
2022/08/10 10:05:21;;;;;;;2.85;1.85;;;;;;;31.78;30.06;98967.14;1731675;81;21155;-90
2022/08/10 10:07:58;;;;;;;6.03;2.27;;;;;;;32.20;29.54;98955.13;1730831;82;21626;-85
2022/08/10 10:10:31;;;;;;;3.10;2.10;;;;;;;32.46;28.83;98960.12;1719951;82;20999;-89
2022/08/10 10:13:06;;;;;;;3.52;2.50;;;;;;;32.23;28.63;98963.36;1738677;81;21060;-85
2022/08/10 10:15:52;;;;;;;6.75;2.12;;;;;;;31.96;29.43;98959.56;1731048;81;21467;-86
2022/08/10 10:18:29;;;;;;;31.55;28.15;;;;;;;33.26;29.05;98947.66;1721351;82;21334;-86
2022/08/10 10:21:10;;;;;;;7.55;3.90;;;;;;;31.89;30.59;98948.35;1728700;81;21547;-88
2022/08/10 10:24:07;;;;;;;6.62;2.55;;;;;;;31.05;30.73;98954.72;1696571;83;21007;-88
2022/08/10 10:26:55;;;;;;;6.05;2.25;;;;;;;29.16;33.39;98951.79;1657651;85;21013;-85
2022/08/10 10:29:32;;;;;;;5.65;2.60;;;;;;;27.17;36.18;98956.92;1651170;85;21833;-84
2022/08/10 10:32:39;;;;;;;6.00;3.07;;;;;;;25.95;39.35;98947.03;1651369;85;21689;-88
2022/08/10 10:35:29;;;;;;;7.58;2.80;;;;;;;24.90;42.20;98954.28;1674449;84;21059;-88
2022/08/10 10:37:55;;;;;;;5.42;3.08;;;;;;;24.39;43.58;98951.17;1721628;81;21038;-87
2022/08/10 10:40:23;;;;;;;11.78;3.27;;;;;;;24.06;44.69;98947.13;1724830;81;21683;-84
2022/08/10 10:43:26;;;;;;;8.73;3.15;;;;;;;23.87;45.29;98956.82;1722666;81;20920;-84
2022/08/10 10:46:12;;;;;;;5.97;3.55;;;;;;;23.57;46.22;98947.05;1735860;80;21834;-87
2022/08/10 10:49:23;;;;;;;19.65;4.65;;;;;;;23.12;48.08;98947.86;1725157;80;21086;-84
2022/08/10 10:52:13;;;;;;;11.45;4.50;;;;;;;22.96;49.29;98950.45;1730401;80;20946;-84
2022/08/10 10:55:05;;;;;;;11.85;3.60;;;;;;;22.75;51.03;98946.88;1714075;81;21037;-86
2022/08/10 10:57:58;;;;;;;6.37;3.50;;;;;;;25.35;45.21;98935.95;1721450;81;21018;-88
2022/08/10 11:00:28;;;;;;;8.98;3.08;;;;;;;27.65;39.13;98937.95;1735837;81;21862;-89
2022/08/10 11:03:22;;;;;;;5.05;2.98;;;;;;;29.85;36.73;98933.16;1720102;82;21331;-85
2022/08/10 11:06:11;;;;;;;5.28;3.10;;;;;;;31.67;33.51;98934.89;1721497;81;21105;-85
2022/08/10 11:08:42;;;;;;;7.47;2.70;;;;;;;32.57;31.92;98930.08;1688141;83;21631;-84
2022/08/10 11:11:13;;;;;;;4.33;2.40;;;;;;;32.07;31.95;98927.93;1670291;83;21069;-88
2022/08/10 11:14:00;;;;;;;5.35;2.52;;;;;;;30.82;31.39;98929.84;1650865;85;21165;-88
2022/08/10 11:16:42;;;;;;;3.17;2.10;;;;;;;30.30;32.84;98928.33;1677022;84;21065;-88
2022/08/10 11:19:55;;;;;;;5.00;2.35;;;;;;;29.25;34.02;98923.59;1664559;84;21027;-85
2022/08/10 11:22:33;;;;;;;5.85;2.75;;;;;;;29.65;33.61;98913.02;1675440;81;20995;-85
2022/08/10 11:25:17;;;;;;;5.55;2.22;;;;;;;30.00;33.81;98923.71;1673882;81;21077;-84
2022/08/10 11:27:57;;;;;;;4.15;1.98;;;;;;;30.70;32.23;98932.19;1697245;81;21069;-88
2022/08/10 11:30:32;;;;;;;4.03;2.25;;;;;;;29.32;31.40;98925.06;1671311;84;21056;-89
2022/08/10 11:33:23;;;;;;;2.55;2.02;;;;;;;30.08;32.67;98919.02;1679264;84;21083;-90
2022/08/10 11:36:02;;;;;;;3.37;1.82;;;;;;;30.57;30.93;98918.50;1665427;83;21618;-89
2022/08/10 11:38:45;;;;;;;3.52;2.02;;;;;;;30.01;31.96;98907.16;1667219;84;21072;-89
2022/08/10 11:41:20;;;;;;;4.53;2.42;;;;;;;29.20;33.37;98906.58;1625709;85;21158;-88
2022/08/10 11:43:52;;;;;;;3.50;2.02;;;;;;;28.59;34.00;98906.42;1669246;85;20951;-84
2022/08/10 11:46:30;;;;;;;4.70;2.00;;;;;;;28.02;35.10;98897.22;1655895;84;21084;-85
2022/08/10 11:49:29;;;;;;;3.92;1.80;;;;;;;28.05;35.54;98893.70;1683684;83;21098;-85
2022/08/10 11:52:06;;;;;;;3.08;2.10;;;;;;;27.96;34.96;98890.97;1700368;83;21061;-88
2022/08/10 11:54:38;;;;;;;6.65;2.08;;;;;;;26.60;37.98;98905.70;1685455;83;21126;-90
2022/08/10 11:57:05;;;;;;;5.78;2.45;;;;;;;26.60;37.98;98905.70;1717464;81;21080;-89
2022/08/10 12:02:20;;;;;;;6.72;1.95;;;;;;;26.15;38.25;98907.88;1719326;81;21139;-83
2022/08/10 12:05:08;;;;;;;2.17;1.65;;;;;;;26.30;38.35;98899.25;1729885;80;21069;-88
2022/08/10 12:07:34;;;;;;;3.42;1.90;;;;;;;26.25;38.21;98892.61;1706067;81;21113;-84
2022/08/10 12:10:00;;;;;;;4.22;2.10;;;;;;;25.85;38.42;98892.28;1718730;82;22257;-89
2022/08/10 12:12:28;;;;;;;7.67;2.22;;;;;;;26.17;38.39;98894.20;1723274;81;21745;-89
2022/08/10 12:15:12;;;;;;;5.30;1.92;;;;;;;26.21;38.86;98891.71;1686430;83;21114;-90
2022/08/10 12:17:43;;;;;;;4.60;2.45;;;;;;;26.13;38.91;98889.36;1686249;84;21121;-90
2022/08/10 12:20:16;;;;;;;8.48;1.90;;;;;;;26.85;37.39;98893.71;1674450;84;21149;-90
2022/08/10 12:23:00;;;;;;;4.83;1.92;;;;;;;28.46;33.79;98879.16;1671612;84;21292;-86
2022/08/10 12:25:49;;;;;;;4.20;1.47;;;;;;;30.85;31.91;98875.09;1660197;84;21042;-85
2022/08/10 12:28:26;;;;;;;3.45;2.02;;;;;;;33.29;28.80;98873.02;1670797;84;21124;-92
2022/08/10 12:30:55;;;;;;;7.05;2.00;;;;;;;33.96;24.52;98867.52;1688538;83;21055;-91
2022/08/10 12:33:28;;;;;;;2.98;1.70;;;;;;;35.33;25.79;98876.73;1713662;81;20977;-91
2022/08/10 12:36:14;;;;;;;2.12;1.60;;;;;;;35.02;23.87;98872.54;1693827;83;21078;-85
2022/08/10 12:39:03;;;;;;;3.17;1.52;;;;;;;35.68;23.88;98876.02;1728077;81;21025;-85
2022/08/10 12:41:35;;;;;;;2.45;1.65;;;;;;;35.44;22.97;98872.37;1691464;83;21135;-86
2022/08/10 12:44:10;;;;;;;4.17;1.55;;;;;;;35.78;22.68;98869.39;1679485;82;20959;-86
2022/08/10 12:46:47;;;;;;;2.83;1.72;;;;;;;32.52;24.36;98867.38;1672918;83;21063;-86
2022/08/10 12:49:36;;;;;;;3.35;1.47;;;;;;;33.22;23.94;98862.62;1688059;83;21054;-86
2022/08/10 12:52:16;;;;;;;3.80;1.60;;;;;;;33.93;22.67;98848.08;1725529;81;21066;-86
2022/08/10 12:54:42;;;;;;;3.33;1.40;;;;;;;33.62;22.37;98854.14;1720200;81;21050;-86
2022/08/10 12:57:14;;;;;;;6.25;1.52;;;;;;;34.50;21.80;98848.07;1725040;81;21137;-90
2022/08/10 12:59:43;;;;;;;3.35;1.30;;;;;;;34.01;22.27;98844.56;1692828;83;21130;-91
2022/08/10 13:02:15;;;;;;;6.12;1.75;;;;;;;36.08;22.04;98838.89;1725535;81;21120;-86
2022/08/10 13:04:41;;;;;;;3.72;1.52;;;;;;;36.15;20.58;98842.99;1719625;81;21025;-91
2022/08/10 13:07:07;;;;;;;2.90;1.27;;;;;;;37.86;20.62;98834.98;1727181;81;21161;-86
2022/08/10 13:09:33;;;;;;;3.75;1.55;;;;;;;38.22;20.19;98830.56;1697320;82;21055;-86
2022/08/10 13:12:04;;;;;;;5.05;1.55;;;;;;;34.86;22.79;98825.88;1691841;82;21034;-90
2022/08/10 13:14:37;;;;;;;4.58;2.08;;;;;;;34.89;23.16;98829.89;1729563;81;21510;-90
2022/08/10 13:17:04;;;;;;;4.55;1.52;;;;;;;32.75;24.70;98827.00;1707104;82;21089;-91
2022/08/10 13:19:40;;;;;;;2.50;1.20;;;;;;;31.95;25.06;98826.84;1728644;81;20979;-90
2022/08/10 13:22:06;;;;;;;2.90;1.62;;;;;;;30.35;27.28;98831.53;1720561;82;21145;-86
2022/08/10 13:24:36;;;;;;;10.25;2.33;;;;;;;29.17;28.48;98832.61;1707574;81;21108;-85
2022/08/10 13:27:06;;;;;;;3.83;1.77;;;;;;;28.43;29.88;98831.15;1725135;81;21821;-90
2022/08/10 13:29:36;;;;;;;3.17;1.85;;;;;;;27.35;32.09;98826.53;1684216;83;21160;-85
2022/08/10 13:32:03;;;;;;;16.17;3.20;;;;;;;26.76;33.90;98830.59;1689474;84;21050;-89
2022/08/10 13:34:29;;;;;;;5.03;2.30;;;;;;;29.37;30.74;98821.42;1708539;81;21026;-91
2022/08/10 13:37:01;;;;;;;2.85;1.80;;;;;;;30.86;29.15;98817.37;1692964;83;22262;-85
2022/08/10 13:39:35;;;;;;;2.95;1.55;;;;;;;31.89;27.67;98817.27;1714845;81;20967;-85
2022/08/10 13:42:04;;;;;;;2.37;1.50;;;;;;;31.55;27.32;98812.67;1726105;82;21510;-85
2022/08/10 13:44:37;;;;;;;4.55;1.77;;;;;;;30.11;28.83;98814.84;1681711;83;21074;-90
2022/08/10 13:47:02;;;;;;;3.58;1.80;;;;;;;28.54;30.09;98809.22;1683239;83;21143;-89
2022/08/10 13:49:28;;;;;;;3.65;1.77;;;;;;;28.54;30.09;98809.22;1657898;84;22002;-85
2022/08/10 13:51:54;;;;;;;2.77;1.52;;;;;;;30.04;28.96;98814.16;1721330;81;21041;-89
2022/08/10 13:54:21;;;;;;;2.72;1.82;;;;;;;31.17;27.00;98798.21;1717736;82;20897;-89
2022/08/10 13:56:48;;;;;;;5.65;2.22;;;;;;;30.44;27.88;98802.62;1714643;82;21163;-85
2022/08/10 13:59:14;;;;;;;4.40;1.80;;;;;;;29.21;28.97;98799.95;1719213;82;21577;-85
2022/08/10 14:01:41;;;;;;;3.22;1.80;;;;;;;28.43;30.00;98801.89;1678874;83;21488;-90
2022/08/10 14:04:09;;;;;;;6.08;2.40;;;;;;;27.92;30.92;98796.22;1675243;83;21037;-85
2022/08/10 14:06:35;;;;;;;;;;;;;;;28.03;31.17;98795.80;1722247;82;21010;-89
2022/08/10 14:09:05;;;;;;;3.75;1.57;;;;;;;27.35;33.25;98792.55;1724929;82;20674;-85
2022/08/10 14:11:31;;;;;;;2.77;1.60;;;;;;;26.57;34.75;98795.25;1722513;81;20983;-85
2022/08/10 14:14:01;;;;;;;5.50;2.08;;;;;;;26.13;36.06;98799.69;1697825;82;21230;-90
2022/08/10 14:16:27;;;;;;;4.30;2.00;;;;;;;26.05;35.19;98794.56;1719022;82;21444;-85
2022/08/10 14:18:57;;;;;;;4.50;1.77;;;;;;;25.90;35.49;98795.44;1643393;85;21156;-90
2022/08/10 14:21:23;;;;;;;4.05;2.10;;;;;;;25.61;36.05;98788.38;1681385;82;21060;-90
2022/08/10 14:23:49;;;;;;;7.55;2.17;;;;;;;25.52;36.00;98786.38;1686804;83;20999;-90
2022/08/10 14:26:27;;;;;;;7.72;2.22;;;;;;;25.61;35.93;98791.16;1716226;82;21696;-90
2022/08/10 14:29:02;;;;;;;4.72;1.70;;;;;;;25.54;36.23;98787.63;1662395;85;20986;-89
2022/08/10 14:31:32;;;;;;;8.78;2.35;;;;;;;25.31;36.72;98791.64;1723530;82;21147;-91
2022/08/10 14:33:58;;;;;;;6.67;2.40;;;;;;;24.93;38.21;98788.05;1715669;82;21071;-84
2022/08/10 14:36:33;;;;;;;6.85;2.55;;;;;;;24.70;38.28;98782.32;1715210;82;21376;-90
2022/08/10 14:39:00;;;;;;;3.98;2.47;;;;;;;24.80;38.17;98781.58;1687200;83;21169;-84
2022/08/10 14:41:31;;;;;;;4.60;2.00;;;;;;;24.94;38.02;98779.96;1713033;82;21045;-88
2022/08/10 14:44:07;;;;;;;5.10;2.37;;;;;;;25.18;36.89;98776.83;1681230;84;20999;-81
2022/08/10 14:46:33;;;;;;;3.40;2.00;;;;;;;25.12;37.29;98774.09;1719521;82;21109;-82
2022/08/10 14:48:59;;;;;;;5.97;1.85;;;;;;;25.07;36.99;98775.77;1723452;81;21037;-86
2022/08/10 14:51:26;;;;;;;2.67;2.05;;;;;;;24.82;37.09;98777.86;1710016;82;21314;-82
2022/08/10 14:53:55;;;;;;;4.30;2.17;;;;;;;24.67;38.27;98778.05;1716344;83;21061;-82
2022/08/10 14:56:25;;;;;;;2.72;2.05;;;;;;;24.74;38.17;98774.09;1725212;81;21084;-87
2022/08/10 14:58:56;;;;;;;3.60;2.10;;;;;;;24.59;38.34;98774.86;1718147;83;21072;-82
2022/08/10 15:01:22;;;;;;;6.30;2.33;;;;;;;24.67;38.59;98771.12;1714189;83;21042;-87
2022/08/10 15:03:59;;;;;;;4.95;1.62;;;;;;;24.84;37.87;98761.67;1714425;82;22375;-82
2022/08/10 15:06:33;;;;;;;6.00;4.20;;;;;;;25.07;38.00;98766.06;1726579;82;22115;-81
2022/08/10 15:09:07;;;;;;;5.55;4.35;;;;;;;25.18;38.09;98761.00;1725410;82;21416;-87
2022/08/10 15:11:33;;;;;;;5.78;2.17;;;;;;;25.10;37.72;98762.56;1663386;85;21702;-82
2022/08/10 15:14:00;;;;;;;7.17;2.20;;;;;;;24.82;37.84;98763.42;1687143;84;21017;-86
2022/08/10 15:16:28;;;;;;;7.85;2.10;;;;;;;25.10;37.50;98760.59;1721471;82;21275;-87
2022/08/10 15:18:54;;;;;;;4.17;1.90;;;;;;;25.08;37.79;98753.23;1691609;83;28356;-82
2022/08/10 15:21:20;;;;;;;3.62;1.77;;;;;;;25.15;38.19;98758.15;1727003;82;21602;-82
2022/08/10 15:23:52;;;;;;;7.40;2.22;;;;;;;25.16;37.73;98751.44;1727091;82;21488;-82
2022/08/10 15:26:19;;;;;;;7.87;3.70;;;;;;;25.08;37.94;98752.42;1721797;82;21037;-82
2022/08/10 15:28:48;;;;;;;5.70;1.77;;;;;;;24.92;38.34;98761.50;1722000;83;21253;-82
2022/08/10 15:31:16;;;;;;;;;;;;;;;24.70;38.81;98753.81;1725612;82;21018;-87
2022/08/10 15:39:29;;;;;;;3.92;2.25;;;;;;;24.48;38.96;98742.14;1694441;83;21463;-88
2022/08/10 15:42:06;;;;;;;5.40;2.85;;;;;;;24.59;38.72;98741.62;1727444;82;21772;-87
2022/08/10 15:44:41;;;;;;;4.08;2.15;;;;;;;24.62;38.69;98743.70;1674282;83;21101;-87
2022/08/10 15:47:14;;;;;;;7.67;2.27;;;;;;;24.82;38.56;98739.87;1729309;81;21093;-82
2022/08/10 15:50:08;;;;;;;4.95;2.20;;;;;;;25.20;38.53;98742.61;1722911;81;21446;-82
2022/08/10 15:52:54;;;;;;;6.55;2.40;;;;;;;26.06;37.98;98740.66;1718044;81;20982;-82
2022/08/10 15:55:28;;;;;;;5.95;2.27;;;;;;;26.73;36.05;98737.59;1733017;81;21850;-87
2022/08/10 15:58:10;;;;;;;4.65;2.80;;;;;;;27.28;35.86;98737.38;1691534;84;20992;-82
2022/08/10 16:00:48;;;;;;;4.30;1.80;;;;;;;27.80;34.22;98736.00;1670997;84;21058;-85
2022/08/10 16:03:37;;;;;;;5.20;1.70;;;;;;;27.75;34.14;98737.70;1720084;83;21048;-85
2022/08/10 16:06:03;;;;;;;2.77;1.72;;;;;;;28.03;33.77;98743.44;1722610;81;21105;-86
2022/08/10 16:08:46;;;;;;;3.52;2.00;;;;;;;27.61;35.14;98743.66;1720375;82;22165;-87
2022/08/10 16:11:15;;;;;;;4.00;1.87;;;;;;;27.13;35.53;98745.48;1713847;83;21154;-86
2022/08/10 16:13:41;;;;;;;6.47;2.10;;;;;;;26.26;36.31;98746.20;1729743;82;21682;-87
2022/08/10 16:16:08;;;;;;;7.15;2.40;;;;;;;25.65;37.63;98753.80;1729132;81;21121;-82
2022/08/10 16:18:37;;;;;;;2.77;1.55;;;;;;;25.16;37.31;98756.40;1726926;81;21082;-87
2022/08/10 16:21:15;;;;;;;6.37;2.55;;;;;;;24.64;38.38;98755.22;1672614;84;21324;-82
2022/08/10 16:23:45;;;;;;;4.83;1.87;;;;;;;24.31;38.68;98754.08;1690991;84;21034;-82
2022/08/10 16:26:17;;;;;;;4.47;1.95;;;;;;;24.24;38.44;98749.72;1703453;83;21065;-87
2022/08/10 16:29:02;;;;;;;4.45;2.77;;;;;;;24.07;39.33;98752.20;1720233;82;21122;-82
2022/08/10 16:31:31;;;;;;;5.70;2.58;;;;;;;23.98;39.68;98758.46;1720767;83;21153;-87
2022/08/10 16:33:59;;;;;;;;;;;;;;;23.80;39.78;98757.94;1722696;82;21188;-82
2022/08/10 16:36:38;;;;;;;3.60;1.77;;;;;;;23.61;41.10;98755.78;1705342;83;20259;-88
2022/08/10 16:39:04;;;;;;;4.10;2.42;;;;;;;23.59;41.12;98759.45;1690958;84;21178;-86
2022/08/10 16:41:31;;;;;;;4.22;2.30;;;;;;;23.50;41.00;98758.73;1691860;84;21487;-82
2022/08/10 16:43:57;;;;;;;4.30;2.35;;;;;;;23.47;41.03;98758.06;1691513;84;21093;-87
2022/08/10 16:46:23;;;;;;;3.60;1.75;;;;;;;23.44;41.05;98760.95;1691148;84;21720;-81
2022/08/10 16:48:49;;;;;;;4.35;1.98;;;;;;;23.40;40.28;98750.34;1691496;84;20978;-86